createdAt,value
2019-03-12T00:00:33.414Z,4.80
2019-03-12T00:02:54.699Z,4.70
2019-03-12T00:05:15.897Z,4.70
2019-03-12T00:07:37.434Z,4.70
2019-03-12T00:09:58.640Z,4.70
2019-03-12T00:12:19.868Z,4.70
2019-03-12T00:14:41.064Z,4.70
2019-03-12T00:17:02.272Z,4.60
2019-03-12T00:19:23.461Z,4.60
2019-03-12T00:21:44.744Z,4.60
2019-03-12T00:24:05.968Z,4.50
2019-03-12T00:26:27.189Z,4.60
2019-03-12T00:28:48.389Z,4.50
2019-03-12T00:31:10.604Z,4.50
2019-03-12T00:33:31.775Z,4.50
2019-03-12T00:35:53.246Z,4.60
2019-03-12T00:38:14.432Z,4.50
2019-03-12T00:40:35.628Z,4.50
2019-03-12T00:42:56.821Z,4.50
2019-03-12T00:45:18.021Z,4.50
2019-03-12T00:47:39.279Z,4.50
2019-03-12T00:50:00.525Z,4.50
2019-03-12T00:52:21.756Z,4.50
2019-03-12T00:54:42.933Z,4.50
2019-03-12T00:57:04.150Z,4.50
2019-03-12T00:59:26.640Z,4.50
2019-03-12T01:01:47.985Z,4.40
2019-03-12T01:04:09.265Z,4.40
2019-03-12T01:06:30.480Z,4.40
2019-03-12T01:08:51.730Z,4.40
2019-03-12T01:11:13.038Z,4.40
2019-03-12T01:13:34.258Z,4.40
2019-03-12T01:15:55.574Z,4.40
2019-03-12T01:18:16.773Z,4.30
2019-03-12T01:20:38.005Z,4.40
2019-03-12T01:22:59.305Z,4.40
2019-03-12T01:25:20.501Z,4.40
2019-03-12T01:27:41.727Z,4.30
2019-03-12T01:30:12.294Z,4.30
2019-03-12T01:32:33.508Z,4.30
2019-03-12T01:34:54.697Z,4.30
2019-03-12T01:37:15.993Z,4.40
2019-03-12T01:39:37.165Z,4.30
2019-03-12T01:41:58.390Z,4.40
2019-03-12T01:44:19.597Z,4.40
2019-03-12T01:46:40.966Z,4.30
2019-03-12T01:49:02.221Z,4.40
2019-03-12T01:51:23.417Z,4.30
2019-03-12T01:53:44.626Z,4.30
2019-03-12T01:56:06.076Z,4.30
2019-03-12T01:58:27.280Z,4.30
2019-03-12T02:00:48.561Z,4.30
2019-03-12T02:03:09.776Z,4.30
2019-03-12T02:05:31.176Z,4.30
2019-03-12T02:07:52.404Z,4.30
2019-03-12T02:10:13.901Z,4.20
2019-03-12T02:12:35.315Z,4.20
2019-03-12T02:14:56.496Z,4.20
2019-03-12T02:17:17.704Z,4.20
2019-03-12T02:19:38.895Z,4.10
2019-03-12T02:22:00.332Z,4.10
2019-03-12T02:24:21.613Z,4.10
2019-03-12T02:26:42.805Z,4.00
2019-03-12T02:29:04.502Z,4.10
2019-03-12T02:31:25.705Z,4.00
2019-03-12T02:33:46.917Z,4.00
2019-03-12T02:36:08.101Z,4.00
2019-03-12T02:38:29.314Z,4.00
2019-03-12T02:40:50.624Z,3.90
2019-03-12T02:43:11.882Z,3.90
2019-03-12T02:45:33.116Z,3.90
2019-03-12T02:47:54.365Z,3.90
2019-03-12T02:50:15.572Z,3.90
2019-03-12T02:52:36.873Z,3.90
2019-03-12T02:54:59.250Z,3.80
2019-03-12T02:57:21.536Z,3.90
2019-03-12T02:59:42.746Z,3.80
2019-03-12T03:02:03.963Z,3.80
2019-03-12T03:04:25.287Z,3.80
2019-03-12T03:06:48.374Z,3.80
2019-03-12T03:09:09.576Z,3.70
2019-03-12T03:11:31.270Z,3.70
2019-03-12T03:13:52.480Z,3.70
2019-03-12T03:16:13.653Z,3.70
2019-03-12T03:18:34.931Z,3.70
2019-03-12T03:20:56.104Z,3.60
2019-03-12T03:23:17.298Z,3.50
2019-03-12T03:25:38.501Z,3.50
2019-03-12T03:27:59.855Z,3.40
2019-03-12T03:30:22.833Z,3.40
2019-03-12T03:32:44.157Z,3.40
2019-03-12T03:35:05.643Z,3.30
2019-03-12T03:37:26.931Z,3.30
2019-03-12T03:39:48.141Z,3.30
2019-03-12T03:42:09.358Z,3.30
2019-03-12T03:44:30.556Z,3.30
2019-03-12T03:46:51.786Z,3.30
2019-03-12T03:49:12.983Z,3.30
2019-03-12T03:51:34.176Z,3.30
2019-03-12T03:53:55.414Z,3.30
2019-03-12T03:56:16.604Z,3.20
2019-03-12T03:58:37.802Z,3.20
2019-03-12T04:00:59.102Z,3.20
2019-03-12T04:03:20.405Z,3.20
2019-03-12T04:05:41.795Z,3.20
2019-03-12T04:08:02.983Z,3.10
2019-03-12T04:10:24.376Z,3.10
2019-03-12T04:12:45.688Z,3.10
2019-03-12T04:15:13.077Z,3.10
2019-03-12T04:17:34.335Z,3.10
2019-03-12T04:19:55.541Z,3.00
2019-03-12T04:22:16.723Z,3.00
2019-03-12T04:24:37.960Z,2.90
2019-03-12T04:26:59.254Z,2.90
2019-03-12T04:29:20.460Z,2.90
2019-03-12T04:31:42.846Z,2.90
2019-03-12T04:34:07.299Z,2.90
2019-03-12T04:36:28.497Z,3.00
2019-03-12T04:38:56.205Z,3.00
2019-03-12T04:41:17.414Z,3.20
2019-03-12T04:43:38.605Z,3.10
2019-03-12T04:45:59.816Z,3.10
2019-03-12T04:48:20.997Z,3.10
2019-03-12T04:50:42.214Z,3.00
2019-03-12T04:53:03.430Z,3.10
2019-03-12T04:55:24.932Z,3.10
2019-03-12T04:57:46.129Z,3.10
2019-03-12T05:00:18.718Z,3.10
2019-03-12T05:02:40.039Z,3.10
2019-03-12T05:05:01.237Z,3.10
2019-03-12T05:07:22.446Z,3.10
2019-03-12T05:09:43.656Z,3.10
2019-03-12T05:12:04.947Z,3.10
2019-03-12T05:14:28.473Z,3.00
2019-03-12T05:16:51.586Z,3.10
2019-03-12T05:19:12.998Z,3.00
2019-03-12T05:21:34.237Z,2.90
2019-03-12T05:23:55.420Z,2.90
2019-03-12T05:26:16.650Z,2.80
2019-03-12T05:28:37.933Z,2.80
2019-03-12T05:30:59.377Z,2.80
2019-03-12T05:33:20.569Z,2.70
2019-03-12T05:35:41.797Z,2.70
2019-03-12T05:38:03.057Z,2.70
2019-03-12T05:40:24.260Z,2.70
2019-03-12T05:42:45.556Z,2.60
2019-03-12T05:45:12.546Z,2.60
2019-03-12T05:47:33.728Z,2.60
2019-03-12T05:49:54.919Z,2.60
2019-03-12T05:52:16.113Z,2.70
2019-03-12T05:54:37.301Z,2.60
2019-03-12T05:56:58.516Z,2.60
2019-03-12T05:59:19.754Z,2.70
2019-03-12T06:01:40.962Z,2.70
2019-03-12T06:04:02.146Z,2.60
2019-03-12T06:06:23.342Z,2.70
2019-03-12T06:08:44.644Z,2.70
2019-03-12T06:11:05.949Z,2.70
2019-03-12T06:13:27.186Z,2.70
2019-03-12T06:15:48.631Z,2.70
2019-03-12T06:18:09.847Z,2.70
2019-03-12T06:20:31.049Z,2.80
2019-03-12T06:22:52.534Z,2.80
2019-03-12T06:25:13.856Z,2.80
2019-03-12T06:27:35.097Z,2.90
2019-03-12T06:29:56.523Z,2.90
2019-03-12T06:32:22.679Z,3.00
2019-03-12T06:34:45.942Z,3.10
2019-03-12T06:43:04.182Z,3.30
2019-03-12T06:45:32.909Z,3.30
2019-03-12T06:48:04.708Z,3.40
2019-03-12T06:50:33.926Z,3.40
2019-03-12T06:53:12.437Z,3.50
2019-03-12T06:55:41.075Z,3.50
2019-03-12T06:58:25.510Z,3.60
2019-03-12T07:01:07.993Z,3.60
2019-03-12T07:03:39.137Z,3.80
2019-03-12T07:06:02.241Z,3.90
2019-03-12T07:08:36.963Z,4.10
2019-03-12T07:11:08.941Z,4.30
2019-03-12T07:13:34.968Z,4.40
2019-03-12T07:16:04.686Z,4.60
2019-03-12T07:18:44.356Z,4.70
2019-03-12T07:21:19.868Z,4.90
2019-03-12T07:23:52.300Z,4.90
2019-03-12T07:26:16.719Z,4.90
2019-03-12T07:28:50.325Z,5.00
2019-03-12T07:31:27.135Z,5.00
2019-03-12T07:33:56.706Z,5.00
2019-03-12T07:36:37.877Z,5.00
2019-03-12T07:39:19.067Z,5.10
2019-03-12T07:41:45.010Z,5.30
2019-03-12T07:44:10.896Z,5.40
2019-03-12T07:46:43.001Z,5.60
2019-03-12T07:49:18.051Z,5.80
2019-03-12T07:54:35.006Z,6.30
2019-03-12T07:56:58.139Z,6.50
2019-03-12T07:59:27.204Z,6.60
2019-03-12T08:01:50.313Z,6.70
2019-03-12T08:04:19.256Z,6.70
2019-03-12T08:06:45.726Z,6.70
2019-03-12T08:09:25.711Z,6.60
2019-03-12T08:11:49.113Z,6.50
2019-03-12T08:14:15.424Z,6.50
2019-03-12T08:16:50.526Z,6.60
2019-03-12T08:19:16.190Z,6.70
2019-03-12T08:21:39.302Z,6.80
2019-03-12T08:24:18.719Z,6.90
2019-03-12T08:26:41.974Z,7.10
2019-03-12T08:29:05.140Z,7.20
2019-03-12T08:31:37.428Z,7.30
2019-03-12T08:34:03.377Z,7.30
2019-03-12T08:36:26.512Z,7.50
2019-03-12T08:38:52.129Z,7.60
2019-03-12T08:41:15.216Z,7.60
2019-03-12T08:43:41.578Z,7.70
2019-03-12T08:46:10.469Z,7.80
2019-03-12T08:48:36.434Z,7.80
2019-03-12T08:50:59.610Z,7.90
2019-03-12T08:53:41.069Z,8.00
2019-03-12T08:56:07.254Z,8.30
2019-03-12T08:58:33.564Z,8.10
2019-03-12T09:00:57.005Z,8.40
2019-03-12T09:03:36.721Z,8.30
2019-03-12T09:06:08.808Z,8.40
2019-03-12T09:08:43.859Z,8.70
2019-03-12T09:11:15.779Z,8.90
2019-03-12T09:13:47.825Z,9.20
2019-03-12T09:16:27.713Z,9.60
2019-03-12T09:18:56.604Z,9.70
2019-03-12T09:21:19.881Z,9.80
2019-03-12T09:23:45.833Z,10.10
2019-03-12T09:26:08.934Z,10.10
2019-03-12T09:28:47.175Z,9.80
2019-03-12T09:31:22.434Z,10.00
2019-03-12T09:33:48.668Z,10.20
2019-03-12T09:36:27.220Z,10.20
2019-03-12T09:39:07.051Z,10.10
2019-03-12T09:41:32.042Z,10.10
2019-03-12T09:44:03.954Z,10.30
2019-03-12T09:46:33.188Z,10.20
2019-03-12T09:48:56.415Z,10.00
2019-03-12T09:51:34.349Z,10.00
2019-03-12T09:54:03.814Z,9.80
2019-03-12T09:56:41.732Z,9.80
2019-03-12T09:59:07.846Z,9.80
2019-03-12T10:01:37.173Z,9.80
2019-03-12T10:04:06.125Z,9.80
2019-03-12T10:06:34.910Z,9.80
2019-03-12T10:08:58.044Z,10.00
2019-03-12T10:11:37.678Z,10.00
2019-03-12T10:14:03.756Z,9.90
2019-03-12T10:16:29.714Z,9.90
2019-03-12T10:19:07.846Z,9.80
2019-03-12T10:21:47.621Z,10.00
2019-03-12T10:24:10.726Z,10.00
2019-03-12T10:26:39.353Z,10.00
2019-03-12T10:29:02.528Z,10.00
2019-03-12T10:31:25.753Z,10.10
2019-03-12T10:33:57.846Z,10.20
2019-03-12T10:36:27.146Z,10.60
2019-03-12T10:39:30.399Z,10.90
2019-03-12T10:42:02.404Z,11.20
2019-03-12T10:44:25.551Z,11.30
2019-03-12T10:46:48.744Z,11.40
2019-03-12T10:49:11.357Z,11.50
2019-03-12T10:51:32.557Z,11.50
2019-03-12T10:53:53.866Z,11.60
2019-03-12T10:56:15.104Z,11.70
2019-03-12T10:58:36.327Z,11.90
2019-03-12T11:00:57.522Z,11.80
2019-03-12T11:03:18.746Z,11.80
2019-03-12T11:05:45.749Z,11.70
2019-03-12T11:08:06.583Z,11.80
2019-03-12T11:10:26.461Z,11.60
2019-03-12T11:12:47.774Z,11.60
2019-03-12T11:15:10.187Z,11.60
2019-03-12T11:17:31.723Z,11.70
2019-03-12T11:19:52.964Z,11.70
2019-03-12T11:22:14.264Z,11.80
2019-03-12T11:24:35.474Z,12.20
2019-03-12T11:26:57.885Z,12.40
2019-03-12T11:29:19.073Z,12.90
2019-03-12T11:31:40.319Z,12.80
2019-03-12T11:34:01.498Z,12.50
2019-03-12T11:36:22.910Z,11.80
2019-03-12T11:38:44.626Z,12.20
2019-03-12T11:41:05.943Z,12.40
2019-03-12T11:43:27.217Z,12.50
2019-03-12T11:45:48.842Z,12.50
2019-03-12T11:48:10.343Z,12.60
2019-03-12T11:50:31.881Z,12.30
2019-03-12T11:52:57.177Z,12.20
2019-03-12T11:55:16.416Z,12.30
2019-03-12T11:57:37.742Z,12.30
2019-03-12T11:59:59.057Z,12.60
2019-03-12T12:02:20.263Z,12.60
2019-03-12T12:04:41.464Z,12.80
2019-03-12T12:07:02.671Z,12.80
2019-03-12T12:09:23.859Z,12.90
2019-03-12T12:11:45.251Z,13.10
2019-03-12T12:14:06.562Z,13.20
2019-03-12T12:16:27.987Z,13.20
2019-03-12T12:18:49.222Z,13.30
2019-03-12T12:21:10.435Z,13.00
2019-03-12T12:23:31.613Z,13.20
2019-03-12T12:25:52.923Z,13.50
2019-03-12T12:28:14.396Z,13.50
2019-03-12T12:30:35.809Z,13.20
2019-03-12T12:32:57.141Z,13.40
2019-03-12T12:35:18.486Z,13.50
2019-03-12T12:37:40.184Z,13.30
2019-03-12T12:40:01.439Z,13.50
2019-03-12T12:42:23.732Z,13.50
2019-03-12T12:44:45.216Z,13.60
2019-03-12T12:47:06.418Z,13.80
2019-03-12T12:49:27.593Z,13.70
2019-03-12T12:51:48.878Z,13.70
2019-03-12T12:54:10.075Z,13.70
2019-03-12T12:56:31.525Z,13.60
2019-03-12T12:58:52.784Z,13.80
2019-03-12T13:01:13.991Z,13.60
2019-03-12T13:03:35.217Z,13.60
2019-03-12T13:06:10.018Z,13.40
2019-03-12T13:08:31.290Z,13.50
2019-03-12T13:10:52.765Z,13.70
2019-03-12T13:13:13.968Z,13.60
2019-03-12T13:15:35.162Z,13.50
2019-03-12T13:17:56.358Z,13.40
2019-03-12T13:20:17.751Z,13.60
2019-03-12T13:22:38.961Z,13.60
2019-03-12T13:25:00.388Z,13.60
2019-03-12T13:27:21.867Z,13.70
2019-03-12T13:29:43.081Z,13.60
2019-03-12T13:32:13.436Z,13.70
2019-03-12T13:34:27.365Z,13.80
2019-03-12T13:36:48.554Z,13.70
2019-03-12T13:39:09.957Z,13.70
2019-03-12T13:41:31.807Z,13.50
2019-03-12T13:43:53.020Z,13.80
2019-03-12T13:46:14.257Z,13.80
2019-03-12T13:48:35.559Z,13.70
2019-03-12T13:50:56.845Z,13.90
2019-03-12T13:53:18.119Z,13.80
2019-03-12T13:55:39.332Z,13.80
2019-03-12T13:58:00.727Z,13.90
2019-03-12T14:00:23.135Z,13.90
2019-03-12T14:02:44.652Z,13.80
2019-03-12T14:05:07.600Z,13.80
2019-03-12T14:07:29.047Z,14.00
2019-03-12T14:09:50.256Z,14.00
2019-03-12T14:12:11.587Z,14.10
2019-03-12T14:14:32.997Z,14.20
2019-03-12T14:16:54.200Z,14.30
2019-03-12T14:19:15.417Z,14.40
2019-03-12T14:21:38.816Z,14.30
2019-03-12T14:24:00.344Z,14.30
2019-03-12T14:26:21.538Z,14.10
2019-03-12T14:28:42.754Z,14.00
2019-03-12T14:31:18.115Z,13.80
2019-03-12T14:33:39.333Z,13.80
2019-03-12T14:36:00.537Z,13.90
2019-03-12T14:38:21.759Z,13.80
2019-03-12T14:40:43.067Z,13.80
2019-03-12T14:43:04.461Z,13.90
2019-03-12T14:45:27.288Z,13.90
2019-03-12T14:47:48.517Z,13.90
2019-03-12T14:50:13.023Z,14.00
2019-03-12T14:52:34.334Z,13.90
2019-03-12T14:54:55.516Z,14.00
2019-03-12T14:57:16.735Z,14.00
2019-03-12T14:59:37.935Z,14.00
2019-03-12T15:01:59.216Z,14.00
2019-03-12T15:04:20.900Z,13.90
2019-03-12T15:06:42.096Z,13.90
2019-03-12T15:09:06.324Z,13.70
2019-03-12T15:11:29.396Z,13.80
2019-03-12T15:13:50.601Z,13.90
2019-03-12T15:16:12.127Z,14.00
2019-03-12T15:18:33.407Z,14.00
2019-03-12T15:20:54.581Z,13.60
2019-03-12T15:23:15.846Z,13.60
2019-03-12T15:25:37.117Z,13.40
2019-03-12T15:27:58.322Z,13.40
2019-03-12T15:30:23.317Z,13.20
2019-03-12T15:32:44.645Z,13.20
2019-03-12T15:35:06.057Z,13.10
2019-03-12T15:37:27.336Z,13.10
2019-03-12T15:39:48.563Z,13.10
2019-03-12T15:42:09.747Z,13.10
2019-03-12T15:44:30.955Z,13.00
2019-03-12T15:46:52.148Z,12.90
2019-03-12T15:49:13.381Z,12.90
2019-03-12T15:51:34.693Z,12.80
2019-03-12T15:53:55.976Z,12.80
2019-03-12T15:56:17.353Z,12.80
2019-03-12T15:58:38.865Z,12.70
2019-03-12T16:01:02.501Z,12.70
2019-03-12T16:03:24.390Z,12.60
2019-03-12T16:05:45.601Z,12.50
2019-03-12T16:08:06.870Z,12.50
2019-03-12T16:10:28.328Z,12.40
2019-03-12T16:12:49.548Z,12.40
2019-03-12T16:15:15.652Z,12.40
2019-03-12T16:17:36.873Z,12.30
2019-03-12T16:19:58.447Z,12.30
2019-03-12T16:22:21.606Z,12.30
2019-03-12T16:24:42.926Z,12.20
2019-03-12T16:27:04.662Z,12.20
2019-03-12T16:29:25.874Z,12.10
2019-03-12T16:31:47.045Z,12.00
2019-03-12T16:34:08.256Z,12.00
2019-03-12T16:36:29.473Z,11.90
2019-03-12T16:38:50.844Z,11.90
2019-03-12T16:41:12.156Z,11.80
2019-03-12T16:43:33.397Z,11.70
2019-03-12T16:45:54.593Z,11.70
2019-03-12T16:48:16.063Z,11.60
2019-03-12T16:50:38.298Z,11.50
2019-03-12T16:52:59.499Z,11.40
2019-03-12T16:55:20.909Z,11.40
2019-03-12T16:57:43.601Z,11.40
2019-03-12T17:00:10.484Z,11.30
2019-03-12T17:02:32.684Z,11.30
2019-03-12T17:04:53.885Z,11.30
2019-03-12T17:07:15.073Z,11.20
2019-03-12T17:09:36.283Z,11.10
2019-03-12T17:11:57.797Z,11.10
2019-03-12T17:14:18.981Z,11.10
2019-03-12T17:16:40.296Z,11.00
2019-03-12T17:19:01.544Z,10.90
2019-03-12T17:21:23.044Z,10.90
2019-03-12T17:23:44.444Z,10.80
2019-03-12T17:26:05.664Z,10.70
2019-03-12T17:28:26.988Z,10.70
2019-03-12T17:30:48.333Z,10.60
2019-03-12T17:33:09.561Z,10.50
2019-03-12T17:35:35.755Z,10.50
2019-03-12T17:37:57.017Z,10.50
2019-03-12T17:40:19.639Z,10.40
2019-03-12T17:42:40.889Z,10.40
2019-03-12T17:45:04.429Z,10.30
2019-03-12T17:47:25.788Z,10.30
2019-03-12T17:49:46.979Z,10.20
2019-03-12T17:52:08.190Z,10.10
2019-03-12T17:54:31.981Z,10.20
2019-03-12T17:56:52.556Z,10.10
2019-03-12T17:59:13.765Z,10.10
2019-03-12T18:01:35.147Z,10.00
2019-03-12T18:03:56.537Z,10.00
2019-03-12T18:06:17.962Z,10.00
2019-03-12T18:08:39.233Z,9.90
2019-03-12T18:11:00.453Z,9.90
2019-03-12T18:13:21.644Z,9.90
2019-03-12T18:15:42.941Z,9.90
2019-03-12T18:18:04.431Z,9.90
2019-03-12T18:20:25.753Z,9.80
2019-03-12T18:22:48.245Z,9.80
2019-03-12T18:25:12.756Z,9.80
2019-03-12T18:27:33.978Z,9.70
2019-03-12T18:29:55.279Z,9.70
2019-03-12T18:32:16.468Z,9.70
2019-03-12T18:34:37.646Z,9.70
2019-03-12T18:36:58.857Z,9.60
2019-03-12T18:39:20.101Z,9.60
2019-03-12T18:41:41.437Z,9.70
2019-03-12T18:44:02.995Z,9.70
2019-03-12T18:46:24.254Z,9.70
2019-03-12T18:48:45.786Z,9.70
2019-03-12T18:51:06.990Z,9.70
2019-03-12T18:53:28.184Z,9.70
2019-03-12T18:55:53.229Z,9.70
2019-03-12T18:58:14.505Z,9.70
2019-03-12T19:00:38.007Z,9.70
2019-03-12T19:02:59.318Z,9.70
2019-03-12T19:05:20.810Z,9.80
2019-03-12T19:07:42.030Z,9.70
2019-03-12T19:10:13.015Z,9.80
2019-03-12T19:12:33.028Z,9.80
2019-03-12T19:14:54.270Z,9.80
2019-03-12T19:17:15.604Z,9.70
2019-03-12T19:19:36.825Z,9.70
2019-03-12T19:21:58.030Z,9.70
2019-03-12T19:24:19.233Z,9.70
2019-03-12T19:26:40.520Z,9.70
2019-03-12T19:29:01.711Z,9.70
2019-03-12T19:31:34.041Z,9.70
2019-03-12T19:33:56.479Z,9.70
2019-03-12T19:36:17.680Z,9.70
2019-03-12T19:38:39.273Z,9.70
2019-03-12T19:41:00.477Z,9.70
2019-03-12T19:43:25.320Z,9.70
2019-03-12T19:45:46.508Z,9.60
2019-03-12T19:48:07.825Z,9.70
2019-03-12T19:50:29.120Z,9.80
2019-03-12T19:52:50.316Z,9.80
2019-03-12T19:55:17.524Z,9.80
2019-03-12T19:57:40.022Z,9.80
2019-03-12T20:00:06.652Z,9.80
2019-03-12T20:02:29.163Z,9.90
2019-03-12T20:04:50.449Z,9.90
2019-03-12T20:07:11.691Z,9.90
2019-03-12T20:09:36.805Z,9.90
2019-03-12T20:12:22.925Z,9.80
2019-03-12T20:15:13.945Z,9.80
2019-03-12T20:17:46.483Z,9.70
2019-03-12T20:20:31.213Z,9.60
2019-03-12T20:23:20.522Z,9.50
2019-03-12T20:26:09.247Z,9.40
2019-03-12T20:28:34.693Z,9.30
2019-03-12T20:31:11.290Z,9.20
2019-03-12T20:34:08.414Z,9.10
2019-03-12T20:37:07.088Z,9.00
2019-03-12T20:39:54.974Z,9.00
2019-03-12T20:42:44.534Z,8.90
2019-03-12T20:45:26.166Z,8.90
2019-03-12T20:48:07.969Z,9.30
2019-03-12T20:50:49.746Z,9.60
2019-03-12T20:54:04.945Z,10.00
2019-03-12T20:56:36.182Z,10.20
2019-03-12T20:59:33.725Z,10.40
2019-03-12T21:02:22.291Z,10.60
2019-03-12T21:05:12.824Z,10.70
2019-03-12T21:07:41.074Z,10.80
2019-03-12T21:10:40.912Z,11.00
2019-03-12T21:13:34.845Z,11.10
2019-03-12T21:16:09.421Z,11.20
2019-03-12T21:19:09.286Z,11.40
2019-03-12T21:22:04.326Z,11.50
2019-03-12T21:24:47.641Z,11.60
2019-03-12T21:27:12.702Z,11.60
2019-03-12T21:29:43.807Z,11.80
2019-03-12T21:32:06.620Z,11.80
2019-03-12T21:34:27.895Z,12.00
2019-03-12T21:37:02.177Z,12.00
2019-03-12T21:39:23.529Z,12.10
2019-03-12T21:41:45.321Z,12.20
2019-03-12T21:44:06.612Z,12.20
2019-03-12T21:46:28.060Z,12.30
2019-03-12T21:48:49.366Z,12.40
2019-03-12T21:51:11.163Z,12.50
2019-03-12T21:53:32.764Z,12.50
2019-03-12T21:55:54.096Z,12.60
2019-03-12T21:58:15.410Z,12.60
2019-03-12T22:00:36.719Z,12.60
2019-03-12T22:02:58.071Z,12.60
2019-03-12T22:05:19.441Z,12.80
2019-03-12T22:07:41.215Z,12.80
2019-03-12T22:10:05.389Z,12.80
2019-03-12T22:12:27.788Z,12.80
2019-03-12T22:14:49.113Z,12.70
2019-03-12T22:17:10.467Z,12.50
2019-03-12T22:19:31.880Z,12.60
2019-03-12T22:22:10.843Z,12.60
2019-03-12T22:24:32.208Z,12.40
2019-03-12T22:26:53.469Z,12.50
2019-03-12T22:29:14.820Z,12.40
2019-03-12T22:31:36.712Z,12.30
2019-03-12T22:33:57.988Z,12.40
2019-03-12T22:36:19.376Z,12.30
2019-03-12T22:38:41.928Z,12.50
2019-03-12T22:41:03.356Z,12.50
2019-03-12T22:43:24.537Z,12.40
2019-03-12T22:45:46.198Z,12.50
2019-03-12T22:48:07.399Z,12.40
2019-03-12T22:50:28.770Z,12.50
2019-03-12T22:52:50.204Z,12.50
2019-03-12T22:55:12.707Z,12.50
2019-03-12T22:57:34.228Z,12.40
2019-03-12T23:00:18.132Z,12.50
2019-03-12T23:02:58.319Z,12.40
2019-03-12T23:05:38.130Z,12.40
2019-03-12T23:08:18.054Z,12.20
2019-03-12T23:10:42.596Z,12.20
2019-03-12T23:13:05.963Z,12.10
2019-03-12T23:15:29.357Z,11.80
2019-03-12T23:17:51.539Z,11.70
2019-03-12T23:20:18.944Z,11.50
2019-03-12T23:22:40.604Z,11.40
2019-03-12T23:25:02.237Z,11.30
2019-03-12T23:27:25.329Z,11.20
2019-03-12T23:29:46.639Z,11.10
2019-03-12T23:32:07.935Z,10.90
2019-03-12T23:34:29.501Z,10.80
2019-03-12T23:36:50.764Z,10.70
2019-03-12T23:39:12.065Z,10.60
2019-03-12T23:41:33.622Z,10.40
2019-03-12T23:43:54.928Z,10.40
2019-03-12T23:46:16.141Z,10.20
2019-03-12T23:48:37.529Z,10.00
2019-03-12T23:50:58.876Z,9.90
2019-03-12T23:53:20.792Z,9.80
2019-03-12T23:55:42.267Z,9.80
2019-03-12T23:58:03.712Z,9.60
